createdAt,value
2022-08-27T00:03:04.015Z,18.20
2022-08-27T00:08:06.532Z,18.18
2022-08-27T00:13:08.439Z,18.21
2022-08-27T00:18:09.835Z,18.23
2022-08-27T00:23:10.895Z,18.24
2022-08-27T00:28:12.350Z,18.26
2022-08-27T00:33:13.483Z,18.32
2022-08-27T00:38:14.857Z,18.24
2022-08-27T00:43:25.206Z,18.30
2022-08-27T00:48:29.692Z,18.21
2022-08-27T00:53:32.804Z,18.15
2022-08-27T00:58:46.005Z,18.12
2022-08-27T01:03:50.578Z,18.19
2022-08-27T01:08:56.468Z,18.15
2022-08-27T01:13:59.610Z,18.22
2022-08-27T01:19:06.885Z,18.12
2022-08-27T01:24:44.864Z,18.24
2022-08-27T01:29:47.139Z,18.09
2022-08-27T01:34:48.968Z,18.13
2022-08-27T01:39:50.265Z,18.02
2022-08-27T01:44:57.812Z,17.98
2022-08-27T01:50:00.206Z,17.97
2022-08-27T01:55:01.697Z,17.98
2022-08-27T02:00:08.825Z,17.92
2022-08-27T02:05:13.303Z,17.91
2022-08-27T02:10:22.994Z,17.96
2022-08-27T02:15:25.360Z,17.96
2022-08-27T02:20:29.316Z,17.94
2022-08-27T02:25:31.000Z,17.84
2022-08-27T02:30:33.624Z,17.78
2022-08-27T02:35:43.146Z,17.68
2022-08-27T02:40:44.075Z,17.72
2022-08-27T02:45:45.317Z,17.74
2022-08-27T02:50:46.354Z,17.78
2022-08-27T02:55:47.300Z,17.74
2022-08-27T03:00:48.173Z,17.73
2022-08-27T03:05:49.469Z,17.80
2022-08-27T03:10:51.101Z,17.63
2022-08-27T03:15:52.846Z,17.59
2022-08-27T03:20:55.597Z,17.62
2022-08-27T03:25:59.159Z,17.46
2022-08-27T03:31:03.342Z,17.41
2022-08-27T03:36:06.881Z,17.48
2022-08-27T03:41:07.674Z,17.39
2022-08-27T03:46:08.776Z,17.27
2022-08-27T03:51:12.679Z,17.23
2022-08-27T03:56:14.263Z,17.14
2022-08-27T04:01:16.389Z,17.11
2022-08-27T04:06:17.457Z,17.17
2022-08-27T04:11:18.402Z,17.13
2022-08-27T04:16:19.288Z,16.97
2022-08-27T04:21:22.356Z,16.95
2022-08-27T04:26:23.246Z,16.90
2022-08-27T04:31:25.434Z,16.95
2022-08-27T04:36:26.740Z,16.90
2022-08-27T04:41:28.601Z,16.95
2022-08-27T04:46:32.618Z,16.93
2022-08-27T04:51:34.264Z,16.84
2022-08-27T04:56:37.392Z,16.90
2022-08-27T05:01:42.291Z,16.82
2022-08-27T05:06:45.315Z,16.83
2022-08-27T05:11:47.159Z,16.92
2022-08-27T05:16:48.155Z,16.91
2022-08-27T05:21:51.032Z,17.02
2022-08-27T05:26:52.025Z,16.97
2022-08-27T05:31:54.639Z,16.84
2022-08-27T05:36:55.688Z,16.87
2022-08-27T05:41:57.327Z,16.85
2022-08-27T05:46:58.257Z,16.86
2022-08-27T05:51:59.314Z,16.70
2022-08-27T05:57:00.190Z,16.79
2022-08-27T06:02:02.063Z,16.89
2022-08-27T06:07:03.699Z,16.85
2022-08-27T06:12:06.101Z,16.90
2022-08-27T06:17:07.033Z,16.89
2022-08-27T06:22:10.395Z,16.97
2022-08-27T06:27:15.457Z,16.97
2022-08-27T06:32:16.300Z,17.05
2022-08-27T06:37:17.400Z,17.08
2022-08-27T06:42:18.233Z,17.10
2022-08-27T06:47:22.053Z,17.15
2022-08-27T06:52:22.913Z,17.15
2022-08-27T06:57:23.995Z,17.21
2022-08-27T07:02:25.310Z,17.44
2022-08-27T07:07:27.237Z,17.56
2022-08-27T07:12:35.492Z,17.68
2022-08-27T07:17:36.415Z,17.54
2022-08-27T07:22:40.036Z,17.54
2022-08-27T07:27:41.099Z,17.44
2022-08-27T07:32:45.297Z,17.52
2022-08-27T07:37:46.225Z,17.40
2022-08-27T07:43:05.767Z,17.32
2022-08-27T07:48:06.676Z,17.16
2022-08-27T07:53:07.860Z,17.05
2022-08-27T07:58:11.540Z,17.12
2022-08-27T08:03:13.404Z,17.14
2022-08-27T08:08:15.106Z,17.32
2022-08-27T08:13:17.820Z,17.26
2022-08-27T08:18:18.846Z,17.26
2022-08-27T08:23:21.107Z,17.34
2022-08-27T08:28:21.907Z,17.44
2022-08-27T08:33:23.615Z,17.51
2022-08-27T08:38:25.373Z,17.49
2022-08-27T08:43:36.790Z,17.48
2022-08-27T08:48:43.047Z,17.65
2022-08-27T08:53:52.283Z,17.68
2022-08-27T08:59:02.694Z,17.89
2022-08-27T09:04:06.517Z,17.99
2022-08-27T09:09:53.816Z,17.94
2022-08-27T09:15:05.034Z,17.98
2022-08-27T09:20:07.853Z,17.81
2022-08-27T09:25:31.066Z,17.97
2022-08-27T09:30:42.434Z,17.99
2022-08-27T09:35:45.812Z,18.06
2022-08-27T09:40:51.184Z,18.11
2022-08-27T09:45:55.777Z,18.23
2022-08-27T09:51:01.790Z,18.28
2022-08-27T09:56:09.212Z,18.49
2022-08-27T10:01:22.253Z,18.75
2022-08-27T10:06:28.534Z,19.07
2022-08-27T10:11:35.299Z,19.42
2022-08-27T10:17:04.780Z,19.34
2022-08-27T10:22:33.301Z,19.51
2022-08-27T10:29:20.278Z,19.59
2022-08-27T10:34:49.672Z,19.61
2022-08-27T10:40:22.738Z,19.63
2022-08-27T10:45:46.534Z,19.64
2022-08-27T10:52:09.384Z,19.73
2022-08-27T10:57:58.879Z,19.96
2022-08-27T11:03:08.375Z,20.23
2022-08-27T11:08:40.476Z,20.39
2022-08-27T11:13:50.798Z,21.03
2022-08-27T11:18:57.525Z,21.35
2022-08-27T11:24:08.199Z,21.62
2022-08-27T11:29:26.367Z,21.58
2022-08-27T11:34:45.776Z,21.64
2022-08-27T11:41:44.615Z,22.05
2022-08-27T11:46:49.414Z,22.19
2022-08-27T11:52:03.713Z,22.09
2022-08-27T11:57:14.704Z,21.75
2022-08-27T12:02:26.249Z,21.17
2022-08-27T12:07:32.613Z,20.83
2022-08-27T12:15:16.671Z,20.90
2022-08-27T12:20:41.330Z,21.65
2022-08-27T12:25:42.564Z,21.74
2022-08-27T12:30:53.389Z,21.69
2022-08-27T12:35:57.231Z,22.01
2022-08-27T12:41:03.209Z,22.00
2022-08-27T12:46:13.144Z,22.05
2022-08-27T12:51:26.238Z,21.82
2022-08-27T12:58:15.687Z,21.45
2022-08-27T13:03:34.730Z,22.48
2022-08-27T13:08:35.663Z,22.32
2022-08-27T13:13:36.714Z,22.36
2022-08-27T13:18:39.096Z,22.19
2022-08-27T13:23:46.672Z,22.04
2022-08-27T13:28:48.942Z,21.89
2022-08-27T13:33:50.217Z,21.98
2022-08-27T13:38:51.604Z,21.86
2022-08-27T13:43:57.075Z,22.18
2022-08-27T13:49:00.342Z,22.10
2022-08-27T13:54:15.354Z,22.60
2022-08-27T13:59:26.525Z,22.29
2022-08-27T14:05:02.462Z,22.62
2022-08-27T14:10:45.521Z,22.71
2022-08-27T14:15:58.644Z,23.37
2022-08-27T14:21:01.594Z,22.94
2022-08-27T14:26:02.557Z,23.10
2022-08-27T14:31:03.803Z,22.53
2022-08-27T14:36:05.635Z,22.04
2022-08-27T14:41:06.874Z,22.00
2022-08-27T14:46:18.425Z,22.22
2022-08-27T14:51:25.683Z,22.37
2022-08-27T14:56:26.595Z,22.26
2022-08-27T15:01:28.722Z,21.58
2022-08-27T15:06:29.618Z,21.49
2022-08-27T15:11:33.544Z,21.80
2022-08-27T15:16:38.403Z,21.80
2022-08-27T15:21:40.576Z,21.79
2022-08-27T15:26:41.443Z,21.92
2022-08-27T15:31:42.757Z,21.74
2022-08-27T15:36:43.792Z,21.93
2022-08-27T15:42:05.925Z,21.95
2022-08-27T15:47:07.451Z,21.93
2022-08-27T15:52:11.795Z,21.49
2022-08-27T15:57:19.699Z,21.51
2022-08-27T16:02:23.307Z,21.49
2022-08-27T16:07:24.156Z,21.28
2022-08-27T16:12:27.402Z,21.33
2022-08-27T16:17:28.720Z,21.33
2022-08-27T16:22:29.742Z,21.33
2022-08-27T16:27:30.645Z,21.12
2022-08-27T16:32:32.108Z,21.00
2022-08-27T16:37:32.943Z,20.87
2022-08-27T16:42:34.833Z,20.70
2022-08-27T16:50:32.635Z,20.73
2022-08-27T16:55:34.165Z,20.57
2022-08-27T17:00:38.150Z,20.43
2022-08-27T17:05:39.090Z,20.34
2022-08-27T17:10:45.812Z,20.09
2022-08-27T17:15:52.883Z,19.99
2022-08-27T17:20:56.269Z,19.89
2022-08-27T17:25:57.114Z,19.76
2022-08-27T17:31:01.007Z,19.52
2022-08-27T17:36:04.567Z,19.42
2022-08-27T17:41:34.080Z,19.20
2022-08-27T17:46:36.078Z,18.94
2022-08-27T17:51:36.981Z,18.58
2022-08-27T17:56:39.346Z,18.49
2022-08-27T18:01:40.600Z,18.32
2022-08-27T18:06:41.835Z,18.22
2022-08-27T18:11:44.584Z,18.05
2022-08-27T18:16:45.465Z,17.85
2022-08-27T18:21:47.169Z,17.73
2022-08-27T18:26:48.724Z,17.61
2022-08-27T18:31:49.754Z,17.53
2022-08-27T18:36:50.658Z,17.35
2022-08-27T18:41:53.439Z,17.38
2022-08-27T18:46:54.288Z,17.29
2022-08-27T18:51:55.442Z,17.21
2022-08-27T18:56:56.266Z,17.08
2022-08-27T19:01:57.385Z,16.97
2022-08-27T19:06:58.552Z,16.94
2022-08-27T19:11:59.753Z,16.84
2022-08-27T19:17:01.993Z,16.78
2022-08-27T19:22:05.847Z,16.77
2022-08-27T19:27:08.649Z,16.59
2022-08-27T19:32:10.372Z,16.70
2022-08-27T19:37:21.319Z,16.48
2022-08-27T19:42:22.461Z,16.46
2022-08-27T19:47:25.253Z,16.51
2022-08-27T19:52:26.147Z,16.44
2022-08-27T19:57:27.087Z,16.39
2022-08-27T20:02:27.949Z,16.38
2022-08-27T20:07:28.971Z,16.30
2022-08-27T20:12:29.975Z,16.34
2022-08-27T20:17:32.291Z,16.17
2022-08-27T20:22:33.570Z,16.31
2022-08-27T20:27:34.938Z,16.19
2022-08-27T20:32:35.956Z,16.26
2022-08-27T20:37:41.920Z,16.20
2022-08-27T20:42:43.799Z,16.24
2022-08-27T20:47:47.095Z,16.25
2022-08-27T20:52:48.996Z,16.25
2022-08-27T20:58:08.852Z,16.39
2022-08-27T21:03:11.985Z,16.37
2022-08-27T21:08:14.554Z,16.45
2022-08-27T21:13:16.605Z,16.43
2022-08-27T21:18:18.834Z,16.47
2022-08-27T21:23:21.484Z,16.44
2022-08-27T21:28:22.682Z,16.54
2022-08-27T21:33:23.592Z,16.55
2022-08-27T21:38:24.586Z,16.64
2022-08-27T21:43:25.438Z,16.65
2022-08-27T21:48:26.551Z,16.64
2022-08-27T21:53:29.320Z,16.68
2022-08-27T21:58:30.191Z,16.72
2022-08-27T22:03:33.173Z,16.82
2022-08-27T22:08:34.238Z,16.76
2022-08-27T22:13:35.964Z,16.69
2022-08-27T22:18:36.861Z,16.60
2022-08-27T22:23:39.856Z,16.52
2022-08-27T22:28:46.467Z,16.61
2022-08-27T22:33:47.386Z,16.69
2022-08-27T22:38:48.374Z,16.62
2022-08-27T22:43:51.094Z,16.76
2022-08-27T22:48:57.681Z,16.85
2022-08-27T22:53:58.527Z,16.73
2022-08-27T22:58:59.811Z,16.76
2022-08-27T23:04:01.218Z,16.85
2022-08-27T23:09:02.583Z,16.91
2022-08-27T23:14:03.529Z,16.84
2022-08-27T23:19:04.393Z,16.73
2022-08-27T23:24:05.457Z,16.67
2022-08-27T23:29:06.942Z,16.73
2022-08-27T23:34:07.777Z,16.59
2022-08-27T23:39:09.974Z,16.60
2022-08-27T23:44:11.228Z,16.50
2022-08-27T23:49:12.506Z,16.54
2022-08-27T23:54:13.341Z,16.44
2022-08-27T23:59:14.201Z,16.27
